createdAt,value
2022-08-04T00:05:31.463Z,61.57
2022-08-04T00:20:02.240Z,61.69
2022-08-04T00:23:10.281Z,61.44
2022-08-04T00:29:59.485Z,61.32
2022-08-04T00:32:34.534Z,61.22
2022-08-04T00:38:16.140Z,60.91
2022-08-04T00:42:00.119Z,61.22
2022-08-04T00:45:25.963Z,61.27
2022-08-04T00:53:59.859Z,61.42
2022-08-04T00:58:20.866Z,61.50
2022-08-04T01:01:58.471Z,61.56
2022-08-04T01:05:55.879Z,61.31
2022-08-04T01:13:53.079Z,61.20
2022-08-04T01:19:04.089Z,61.20
2022-08-04T01:25:57.846Z,61.97
2022-08-04T01:32:29.114Z,61.79
2022-08-04T01:32:54.169Z,61.58
2022-08-04T01:35:49.085Z,61.71
2022-08-04T01:39:21.173Z,61.71
2022-08-04T01:42:45.057Z,61.83
2022-08-04T01:50:14.051Z,62.05
2022-08-04T01:56:52.433Z,61.89
2022-08-04T01:58:41.380Z,61.97
2022-08-04T01:59:30.006Z,61.84
2022-08-04T02:02:24.685Z,61.58
2022-08-04T02:12:17.453Z,61.59
2022-08-04T02:23:18.327Z,61.47
2022-08-04T02:26:45.179Z,60.93
2022-08-04T02:33:52.714Z,61.56
2022-08-04T02:37:49.325Z,60.88
2022-08-04T02:43:50.146Z,61.93
2022-08-04T02:46:39.258Z,62.20
2022-08-04T02:49:17.845Z,62.44
2022-08-04T02:53:44.617Z,63.06
2022-08-04T02:56:02.549Z,63.72
2022-08-04T03:02:38.123Z,64.15
2022-08-04T03:03:39.670Z,64.56
2022-08-04T03:06:46.501Z,64.93
2022-08-04T03:16:59.551Z,65.56
2022-08-04T03:24:51.618Z,65.80
2022-08-04T03:26:56.314Z,65.65
2022-08-04T03:28:06.387Z,65.74
2022-08-04T03:32:37.937Z,65.66
2022-08-04T03:35:37.146Z,65.49
2022-08-04T03:38:42.081Z,65.28
2022-08-04T03:42:08.003Z,65.07
2022-08-04T03:45:25.673Z,64.68
2022-08-04T03:48:48.511Z,64.52
2022-08-04T03:52:01.670Z,64.28
2022-08-04T03:54:58.903Z,63.74
2022-08-04T03:58:21.011Z,63.86
2022-08-04T04:02:01.926Z,64.14
2022-08-04T04:05:15.690Z,64.42
2022-08-04T04:08:50.309Z,64.88
2022-08-04T04:12:30.415Z,65.10
2022-08-04T04:16:29.827Z,65.06
2022-08-04T04:19:49.987Z,63.96
2022-08-04T04:23:04.485Z,62.26
2022-08-04T04:26:06.666Z,60.82
2022-08-04T04:29:13.251Z,59.05
2022-08-04T04:32:31.845Z,56.95
2022-08-04T04:39:47.122Z,55.50
2022-08-04T04:42:42.873Z,55.26
2022-08-04T04:45:31.962Z,55.51
2022-08-04T04:48:38.386Z,54.79
2022-08-04T04:51:23.997Z,53.67
2022-08-04T04:54:00.531Z,53.00
2022-08-04T04:56:49.517Z,52.30
2022-08-04T04:59:35.102Z,53.32
2022-08-04T05:02:15.317Z,53.45
2022-08-04T05:09:25.313Z,50.45
2022-08-04T05:14:30.944Z,49.35
2022-08-04T05:15:45.433Z,47.14
2022-08-04T05:18:47.832Z,46.68
2022-08-04T05:21:57.573Z,46.35
2022-08-04T05:24:43.410Z,45.35
2022-08-04T05:27:34.998Z,45.02
2022-08-04T05:30:12.195Z,44.89
2022-08-04T05:33:11.465Z,44.38
2022-08-04T05:36:29.446Z,43.58
2022-08-04T05:40:18.759Z,42.98
2022-08-04T05:43:01.968Z,42.98
2022-08-04T05:45:39.252Z,42.85
2022-08-04T05:48:15.084Z,43.00
2022-08-04T05:50:45.880Z,42.59
2022-08-04T05:53:23.622Z,41.96
2022-08-04T05:56:00.621Z,41.88
2022-08-04T05:58:31.783Z,41.68
2022-08-04T06:01:06.997Z,41.00
2022-08-04T06:03:40.221Z,40.04
2022-08-04T06:06:12.764Z,39.44
2022-08-04T06:08:44.871Z,39.16
2022-08-04T06:11:13.957Z,38.90
2022-08-04T06:14:02.558Z,39.01
2022-08-04T06:16:47.031Z,38.65
2022-08-04T06:20:01.951Z,39.13
2022-08-04T06:22:18.452Z,39.66
2022-08-04T06:24:49.703Z,39.54
2022-08-04T06:27:24.307Z,39.47
2022-08-04T06:29:59.047Z,39.45
2022-08-04T06:32:41.282Z,39.70
2022-08-04T06:35:10.442Z,40.58
2022-08-04T06:37:42.629Z,40.95
2022-08-04T06:40:30.561Z,41.41
2022-08-04T06:43:03.000Z,42.41
2022-08-04T06:45:33.640Z,42.56
2022-08-04T06:48:03.107Z,42.92
2022-08-04T06:51:26.620Z,42.80
2022-08-04T06:53:28.819Z,43.03
2022-08-04T06:55:58.358Z,42.66
2022-08-04T06:58:31.950Z,42.44
2022-08-04T07:01:01.676Z,42.69
2022-08-04T07:03:30.447Z,42.57
2022-08-04T07:05:57.604Z,42.66
2022-08-04T07:08:26.915Z,42.73
2022-08-04T07:10:56.817Z,42.60
2022-08-04T07:13:24.516Z,42.98
2022-08-04T07:15:52.731Z,43.10
2022-08-04T07:18:26.937Z,41.93
2022-08-04T07:20:54.583Z,40.48
2022-08-04T07:23:33.534Z,38.44
2022-08-04T07:27:08.300Z,36.80
2022-08-04T07:29:37.654Z,35.36
2022-08-04T07:32:09.765Z,35.09
2022-08-04T07:34:47.785Z,35.06
2022-08-04T07:38:27.976Z,33.88
2022-08-04T07:41:35.747Z,32.76
2022-08-04T07:45:04.549Z,31.94
2022-08-04T07:48:04.708Z,30.58
2022-08-04T07:51:44.595Z,30.86
2022-08-04T07:54:22.839Z,31.07
2022-08-04T07:56:52.699Z,31.37
2022-08-04T07:59:19.671Z,30.68
2022-08-04T08:01:49.734Z,30.35
2022-08-04T08:04:17.461Z,31.09
2022-08-04T08:06:48.388Z,31.56
2022-08-04T08:09:53.138Z,32.07
2022-08-04T08:15:46.389Z,31.68
2022-08-04T08:18:17.990Z,31.36
2022-08-04T08:20:58.003Z,30.87
2022-08-04T08:23:45.446Z,30.60
2022-08-04T08:26:20.506Z,30.55
2022-08-04T08:28:53.358Z,30.80
2022-08-04T08:31:57.138Z,31.69
2022-08-04T08:34:33.857Z,31.51
2022-08-04T08:37:33.740Z,31.05
2022-08-04T08:40:13.302Z,31.03
2022-08-04T08:44:00.596Z,31.03
2022-08-04T08:46:13.932Z,30.92
2022-08-04T08:49:07.958Z,31.20
2022-08-04T08:51:57.575Z,31.12
2022-08-04T08:54:59.234Z,31.03
2022-08-04T08:57:59.770Z,30.66
2022-08-04T09:01:04.487Z,29.49
2022-08-04T09:04:32.001Z,29.60
2022-08-04T09:07:24.809Z,29.31
2022-08-04T09:10:07.906Z,29.47
2022-08-04T09:12:51.442Z,29.36
2022-08-04T09:15:37.995Z,28.79
2022-08-04T09:18:23.479Z,29.64
2022-08-04T09:21:06.056Z,30.12
2022-08-04T09:23:50.941Z,30.27
2022-08-04T09:26:26.720Z,30.50
2022-08-04T09:29:18.929Z,30.51
2022-08-04T09:32:14.370Z,29.42
2022-08-04T09:35:03.462Z,29.77
2022-08-04T09:37:56.960Z,30.38
2022-08-04T09:40:55.240Z,30.19
2022-08-04T09:44:42.753Z,30.70
2022-08-04T09:46:34.792Z,30.99
2022-08-04T09:49:18.669Z,31.19
2022-08-04T09:52:03.048Z,30.87
2022-08-04T09:55:03.129Z,30.76
2022-08-04T09:58:00.889Z,30.19
2022-08-04T10:00:40.795Z,29.68
2022-08-04T10:03:38.447Z,29.93
2022-08-04T10:06:56.351Z,30.15
2022-08-04T10:09:51.993Z,30.28
2022-08-04T10:12:43.654Z,29.80
2022-08-04T10:15:49.255Z,29.77
2022-08-04T10:19:07.788Z,29.91
2022-08-04T10:21:59.469Z,29.93
2022-08-04T10:25:37.498Z,29.40
2022-08-04T10:32:01.428Z,28.46
2022-08-04T10:35:37.334Z,28.14
2022-08-04T10:38:00.238Z,28.13
2022-08-04T10:40:57.281Z,28.09
2022-08-04T10:43:42.921Z,28.29
2022-08-04T10:46:48.612Z,28.41
2022-08-04T10:52:50.155Z,28.36
2022-08-04T10:56:07.261Z,28.35
2022-08-04T10:59:05.553Z,28.93
2022-08-04T11:02:00.963Z,29.06
2022-08-04T11:05:26.489Z,28.08
2022-08-04T11:08:29.154Z,28.04
2022-08-04T11:11:28.104Z,28.24
2022-08-04T11:15:14.543Z,27.96
2022-08-04T11:18:06.807Z,27.92
2022-08-04T11:21:21.965Z,28.02
2022-08-04T11:24:26.337Z,28.27
2022-08-04T11:27:28.112Z,27.78
2022-08-04T11:30:13.531Z,27.71
2022-08-04T11:33:12.675Z,28.22
2022-08-04T11:36:00.841Z,28.29
2022-08-04T11:38:58.553Z,28.18
2022-08-04T11:42:20.709Z,28.36
2022-08-04T11:45:10.730Z,27.96
2022-08-04T11:48:29.907Z,27.98
2022-08-04T11:51:13.441Z,28.02
2022-08-04T11:53:55.969Z,28.35
2022-08-04T11:56:36.093Z,28.85
2022-08-04T11:59:34.460Z,28.65
2022-08-04T12:02:49.266Z,28.44
2022-08-04T12:05:35.528Z,28.71
2022-08-04T12:08:50.254Z,28.86
2022-08-04T12:11:26.087Z,28.76
2022-08-04T12:14:00.602Z,28.82
2022-08-04T12:16:53.851Z,28.65
2022-08-04T12:20:03.845Z,28.47
2022-08-04T12:22:53.573Z,28.32
2022-08-04T12:29:09.459Z,28.60
2022-08-04T12:32:13.371Z,28.80
2022-08-04T12:34:49.667Z,28.14
2022-08-04T12:38:09.215Z,28.35
2022-08-04T12:41:50.188Z,28.93
2022-08-04T12:47:38.382Z,28.85
2022-08-04T12:53:00.366Z,28.28
2022-08-04T12:54:37.049Z,28.69
2022-08-04T12:58:06.299Z,28.34
2022-08-04T13:00:41.219Z,27.99
2022-08-04T13:03:15.542Z,28.22
2022-08-04T13:06:23.394Z,28.35
2022-08-04T13:09:31.567Z,28.48
2022-08-04T13:18:49.295Z,27.77
2022-08-04T13:24:32.646Z,27.86
2022-08-04T13:27:16.371Z,27.70
2022-08-04T13:30:00.474Z,27.65
2022-08-04T13:30:23.936Z,27.71
2022-08-04T13:32:59.703Z,27.48
2022-08-04T13:35:55.362Z,27.71
2022-08-04T13:39:14.657Z,28.16
2022-08-04T13:41:56.936Z,28.20
2022-08-04T13:44:33.822Z,28.18
2022-08-04T13:47:14.823Z,28.02
2022-08-04T13:50:00.884Z,28.20
2022-08-04T13:52:35.017Z,28.40
2022-08-04T13:55:25.726Z,28.31
2022-08-04T13:58:01.393Z,27.84
2022-08-04T14:01:06.530Z,27.46
2022-08-04T14:04:26.579Z,27.25
2022-08-04T14:07:17.994Z,26.61
2022-08-04T14:10:03.174Z,26.53
2022-08-04T14:12:51.622Z,26.60
2022-08-04T14:16:02.660Z,26.52
2022-08-04T14:18:33.313Z,26.23
2022-08-04T14:21:09.078Z,26.02
2022-08-04T14:23:48.671Z,25.78
2022-08-04T14:26:39.913Z,25.81
2022-08-04T14:29:41.399Z,25.39
2022-08-04T14:32:21.705Z,25.09
2022-08-04T14:35:06.235Z,25.26
2022-08-04T14:38:14.832Z,25.40
2022-08-04T14:40:43.635Z,25.39
2022-08-04T14:43:18.963Z,24.95
2022-08-04T14:46:04.275Z,25.17
2022-08-04T14:48:32.373Z,24.89
2022-08-04T14:51:02.758Z,24.78
2022-08-04T14:53:47.124Z,24.75
2022-08-04T14:56:37.367Z,24.76
2022-08-04T14:59:06.590Z,24.80
2022-08-04T15:01:40.849Z,25.02
2022-08-04T15:04:13.332Z,25.37
2022-08-04T15:06:40.990Z,25.30
2022-08-04T15:09:11.476Z,25.42
2022-08-04T15:11:42.951Z,25.17
2022-08-04T15:14:18.579Z,24.89
2022-08-04T15:17:30.011Z,24.64
2022-08-04T15:19:58.710Z,24.64
2022-08-04T15:22:26.838Z,24.68
2022-08-04T15:24:56.593Z,24.76
2022-08-04T15:27:31.571Z,24.53
2022-08-04T15:30:05.038Z,24.50
2022-08-04T15:32:44.924Z,24.21
2022-08-04T15:35:39.110Z,24.22
2022-08-04T15:38:44.238Z,24.38
2022-08-04T15:41:55.217Z,24.34
2022-08-04T15:47:39.737Z,24.69
2022-08-04T15:50:14.556Z,24.36
2022-08-04T15:52:59.619Z,24.25
2022-08-04T15:55:39.186Z,24.02
2022-08-04T15:58:12.918Z,23.71
2022-08-04T16:00:59.578Z,23.68
2022-08-04T16:03:58.640Z,23.41
2022-08-04T16:06:27.473Z,23.27
2022-08-04T16:09:04.577Z,23.06
2022-08-04T16:11:39.475Z,22.77
2022-08-04T16:14:12.698Z,22.85
2022-08-04T16:16:44.561Z,22.39
2022-08-04T16:19:16.119Z,22.50
2022-08-04T16:21:49.842Z,22.52
2022-08-04T16:24:28.578Z,22.49
2022-08-04T16:27:07.784Z,22.17
2022-08-04T16:29:40.932Z,22.16
2022-08-04T16:32:21.726Z,22.43
2022-08-04T16:35:06.550Z,22.35
2022-08-04T16:37:46.978Z,22.26
2022-08-04T16:40:49.611Z,22.34
2022-08-04T16:43:21.859Z,22.33
2022-08-04T16:45:53.648Z,22.50
2022-08-04T16:48:26.895Z,22.99
2022-08-04T16:50:56.629Z,23.10
2022-08-04T16:53:52.944Z,23.14
2022-08-04T16:56:22.146Z,23.33
2022-08-04T16:58:54.168Z,22.94
2022-08-04T17:01:33.152Z,22.86
2022-08-04T17:04:30.288Z,23.13
2022-08-04T17:07:04.509Z,23.32
2022-08-04T17:09:34.138Z,23.42
2022-08-04T17:12:03.120Z,23.50
2022-08-04T17:14:32.006Z,23.51
2022-08-04T17:16:59.846Z,23.74
2022-08-04T17:19:27.069Z,23.90
2022-08-04T17:22:02.934Z,23.86
2022-08-04T17:24:34.663Z,23.98
2022-08-04T17:28:19.135Z,24.52
2022-08-04T17:29:58.390Z,24.77
2022-08-04T17:32:30.536Z,25.01
2022-08-04T17:34:59.315Z,25.30
2022-08-04T17:37:39.634Z,25.50
2022-08-04T17:40:10.187Z,25.63
2022-08-04T17:42:39.211Z,25.78
2022-08-04T17:45:49.107Z,26.04
2022-08-04T17:48:03.060Z,26.31
2022-08-04T17:50:34.484Z,26.56
2022-08-04T17:53:11.857Z,26.88
2022-08-04T17:55:49.528Z,27.11
2022-08-04T17:58:22.564Z,27.45
2022-08-04T18:01:16.671Z,27.94
2022-08-04T18:03:51.541Z,28.52
2022-08-04T18:06:22.651Z,28.77
2022-08-04T18:08:57.395Z,29.01
2022-08-04T18:11:42.310Z,29.26
2022-08-04T18:14:12.207Z,29.47
2022-08-04T18:16:45.944Z,29.83
2022-08-04T18:19:14.046Z,29.99
2022-08-04T18:21:59.353Z,30.00
2022-08-04T18:24:35.482Z,30.56
2022-08-04T18:27:24.988Z,31.09
2022-08-04T18:30:33.742Z,31.46
2022-08-04T18:33:24.073Z,31.85
2022-08-04T18:39:12.575Z,32.68
2022-08-04T18:42:04.419Z,33.03
2022-08-04T18:50:59.888Z,33.68
2022-08-04T19:28:45.026Z,35.77
2022-08-04T19:29:09.015Z,36.95
2022-08-04T19:31:54.090Z,37.30
2022-08-04T19:34:36.490Z,37.85
2022-08-04T19:37:13.364Z,38.12
2022-08-04T19:39:54.342Z,38.17
2022-08-04T19:42:25.367Z,38.33
2022-08-04T19:45:04.857Z,38.67
2022-08-04T19:48:18.034Z,38.59
2022-08-04T19:55:15.925Z,38.74
2022-08-04T19:59:04.309Z,40.70
2022-08-04T20:05:08.837Z,41.51
2022-08-04T20:08:03.158Z,41.76
2022-08-04T20:10:35.209Z,42.26
2022-08-04T20:13:18.717Z,42.48
2022-08-04T20:15:57.887Z,42.71
2022-08-04T20:26:34.094Z,44.80
2022-08-04T20:33:53.472Z,46.75
2022-08-04T20:36:22.117Z,46.94
2022-08-04T20:38:53.924Z,47.24
2022-08-04T20:41:21.445Z,46.78
2022-08-04T20:44:10.756Z,47.25
2022-08-04T20:46:37.795Z,47.72
2022-08-04T20:49:37.818Z,47.72
2022-08-04T20:52:12.090Z,47.86
2022-08-04T20:54:56.233Z,47.97
2022-08-04T20:57:48.120Z,47.53
2022-08-04T21:00:10.295Z,47.59
2022-08-04T21:02:40.217Z,47.90
2022-08-04T21:05:13.811Z,47.74
2022-08-04T21:07:41.846Z,47.87
2022-08-04T21:10:10.905Z,48.19
2022-08-04T21:12:38.042Z,48.53
2022-08-04T21:15:14.498Z,49.27
2022-08-04T21:18:04.416Z,50.17
2022-08-04T21:20:48.207Z,50.96
2022-08-04T21:23:18.555Z,51.84
2022-08-04T21:26:01.640Z,52.29
2022-08-04T21:28:33.234Z,52.61
2022-08-04T21:36:50.675Z,53.57
2022-08-04T21:39:17.308Z,53.50
2022-08-04T21:42:26.584Z,53.54
2022-08-04T21:44:35.007Z,53.78
2022-08-04T21:47:04.156Z,53.98
2022-08-04T21:52:46.891Z,53.82
2022-08-04T21:56:05.071Z,53.88
2022-08-04T21:59:14.442Z,53.72
2022-08-04T22:05:03.372Z,53.23
2022-08-04T22:07:47.692Z,53.00
2022-08-04T22:10:44.523Z,52.67
2022-08-04T22:13:52.808Z,52.25
2022-08-04T22:17:04.148Z,52.07
2022-08-04T22:22:38.603Z,51.52
2022-08-04T22:22:57.428Z,51.77
2022-08-04T22:25:19.507Z,51.43
2022-08-04T22:28:15.859Z,51.33
2022-08-04T22:30:52.194Z,51.35
2022-08-04T22:33:22.666Z,51.42
2022-08-04T22:36:26.649Z,51.56
2022-08-04T22:39:04.424Z,51.67
2022-08-04T22:41:48.790Z,51.87
2022-08-04T22:44:29.641Z,51.90
2022-08-04T22:47:02.220Z,51.96
2022-08-04T22:49:56.480Z,52.11
2022-08-04T22:53:01.135Z,52.17
2022-08-04T22:56:07.026Z,51.98
2022-08-04T22:58:28.721Z,52.18
2022-08-04T23:01:12.723Z,52.46
2022-08-04T23:03:42.352Z,52.47
2022-08-04T23:06:40.060Z,52.50
2022-08-04T23:09:21.954Z,52.54
2022-08-04T23:11:53.928Z,52.43
2022-08-04T23:14:59.512Z,52.67
2022-08-04T23:17:43.761Z,52.80
2022-08-04T23:23:55.659Z,52.76
2022-08-04T23:26:38.349Z,52.68
2022-08-04T23:29:23.235Z,52.74
2022-08-04T23:32:02.444Z,53.01
2022-08-04T23:34:40.531Z,53.11
2022-08-04T23:37:20.471Z,53.10
2022-08-04T23:40:15.574Z,53.22
2022-08-04T23:43:21.820Z,53.20
2022-08-04T23:46:08.649Z,53.35
2022-08-04T23:51:22.072Z,53.45
2022-08-04T23:54:01.507Z,53.56
2022-08-04T23:56:53.535Z,53.73
